sensor_id;sensor_type;location;lat;lon;timestamp;P1;durP1;ratioP1;P2;durP2;ratioP2
27424;SDS011;15244;49.088;11.886;2023-02-17T00:04:40;64.55;;;35.72;;
27424;SDS011;15244;49.088;11.886;2023-02-17T00:09:41;55.75;;;29.52;;
27424;SDS011;15244;49.088;11.886;2023-02-17T00:14:43;35.53;;;23.05;;
27424;SDS011;15244;49.088;11.886;2023-02-17T00:19:44;37.50;;;22.75;;
27424;SDS011;15244;49.088;11.886;2023-02-17T00:24:46;33.47;;;21.15;;
27424;SDS011;15244;49.088;11.886;2023-02-17T00:29:48;39.38;;;24.10;;
27424;SDS011;15244;49.088;11.886;2023-02-17T00:34:51;35.00;;;22.60;;
27424;SDS011;15244;49.088;11.886;2023-02-17T00:39:53;39.63;;;24.23;;
27424;SDS011;15244;49.088;11.886;2023-02-17T00:44:55;34.60;;;22.83;;
27424;SDS011;15244;49.088;11.886;2023-02-17T00:49:56;45.15;;;27.05;;
27424;SDS011;15244;49.088;11.886;2023-02-17T00:55:00;37.60;;;23.27;;
27424;SDS011;15244;49.088;11.886;2023-02-17T01:00:03;33.72;;;22.77;;
27424;SDS011;15244;49.088;11.886;2023-02-17T01:05:07;30.85;;;21.13;;
27424;SDS011;15244;49.088;11.886;2023-02-17T01:10:09;31.33;;;20.73;;
27424;SDS011;15244;49.088;11.886;2023-02-17T01:15:11;31.77;;;21.02;;
27424;SDS011;15244;49.088;11.886;2023-02-17T01:20:13;29.10;;;20.40;;
27424;SDS011;15244;49.088;11.886;2023-02-17T01:25:15;25.75;;;18.75;;
27424;SDS011;15244;49.088;11.886;2023-02-17T01:30:17;28.23;;;19.48;;
27424;SDS011;15244;49.088;11.886;2023-02-17T01:35:19;24.90;;;17.38;;
27424;SDS011;15244;49.088;11.886;2023-02-17T01:40:21;25.15;;;18.38;;
27424;SDS011;15244;49.088;11.886;2023-02-17T01:45:27;25.02;;;18.20;;
27424;SDS011;15244;49.088;11.886;2023-02-17T01:50:34;25.70;;;18.70;;
27424;SDS011;15244;49.088;11.886;2023-02-17T01:55:40;26.50;;;18.80;;
27424;SDS011;15244;49.088;11.886;2023-02-17T02:00:42;26.58;;;18.67;;
27424;SDS011;15244;49.088;11.886;2023-02-17T02:05:44;26.60;;;18.30;;
27424;SDS011;15244;49.088;11.886;2023-02-17T02:10:46;28.58;;;18.42;;
27424;SDS011;15244;49.088;11.886;2023-02-17T02:15:52;25.73;;;17.20;;
27424;SDS011;15244;49.088;11.886;2023-02-17T02:21:18;26.67;;;18.00;;
27424;SDS011;15244;49.088;11.886;2023-02-17T02:37:27;26.63;;;17.63;;
27424;SDS011;15244;49.088;11.886;2023-02-17T02:42:36;25.35;;;17.77;;
27424;SDS011;15244;49.088;11.886;2023-02-17T02:53:02;24.57;;;16.97;;
27424;SDS011;15244;49.088;11.886;2023-02-17T03:08:58;18.45;;;13.77;;
27424;SDS011;15244;49.088;11.886;2023-02-17T03:14:09;23.13;;;15.07;;
27424;SDS011;15244;49.088;11.886;2023-02-17T03:19:13;21.50;;;13.90;;
27424;SDS011;15244;49.088;11.886;2023-02-17T03:24:17;21.20;;;14.38;;
27424;SDS011;15244;49.088;11.886;2023-02-17T03:29:19;25.67;;;15.27;;
27424;SDS011;15244;49.088;11.886;2023-02-17T03:34:21;24.48;;;14.80;;
27424;SDS011;15244;49.088;11.886;2023-02-17T03:39:22;18.42;;;13.75;;
27424;SDS011;15244;49.088;11.886;2023-02-17T03:44:24;21.88;;;15.50;;
27424;SDS011;15244;49.088;11.886;2023-02-17T03:49:25;21.90;;;14.43;;
27424;SDS011;15244;49.088;11.886;2023-02-17T03:54:27;25.65;;;14.77;;
27424;SDS011;15244;49.088;11.886;2023-02-17T03:59:29;21.38;;;14.32;;
27424;SDS011;15244;49.088;11.886;2023-02-17T04:04:30;23.13;;;15.10;;
27424;SDS011;15244;49.088;11.886;2023-02-17T04:09:32;21.15;;;14.82;;
27424;SDS011;15244;49.088;11.886;2023-02-17T04:14:33;26.27;;;15.38;;
27424;SDS011;15244;49.088;11.886;2023-02-17T04:19:35;24.17;;;15.00;;
27424;SDS011;15244;49.088;11.886;2023-02-17T04:24:37;21.73;;;14.77;;
27424;SDS011;15244;49.088;11.886;2023-02-17T04:29:38;24.52;;;15.13;;
27424;SDS011;15244;49.088;11.886;2023-02-17T04:34:40;25.00;;;15.57;;
27424;SDS011;15244;49.088;11.886;2023-02-17T04:39:41;24.73;;;14.77;;
27424;SDS011;15244;49.088;11.886;2023-02-17T04:44:43;21.88;;;14.13;;
27424;SDS011;15244;49.088;11.886;2023-02-17T04:49:44;21.17;;;14.75;;
27424;SDS011;15244;49.088;11.886;2023-02-17T04:54:46;26.13;;;15.35;;
27424;SDS011;15244;49.088;11.886;2023-02-17T04:59:47;26.90;;;15.38;;
27424;SDS011;15244;49.088;11.886;2023-02-17T05:04:49;21.23;;;14.23;;
27424;SDS011;15244;49.088;11.886;2023-02-17T05:09:51;20.48;;;13.45;;
27424;SDS011;15244;49.088;11.886;2023-02-17T05:14:53;20.20;;;13.05;;
27424;SDS011;15244;49.088;11.886;2023-02-17T05:19:55;16.63;;;12.10;;
27424;SDS011;15244;49.088;11.886;2023-02-17T05:24:56;16.90;;;11.32;;
27424;SDS011;15244;49.088;11.886;2023-02-17T05:29:58;19.42;;;12.75;;
27424;SDS011;15244;49.088;11.886;2023-02-17T05:35:00;17.88;;;11.90;;
27424;SDS011;15244;49.088;11.886;2023-02-17T05:40:01;17.58;;;11.13;;
27424;SDS011;15244;49.088;11.886;2023-02-17T05:45:03;14.95;;;11.02;;
27424;SDS011;15244;49.088;11.886;2023-02-17T05:50:05;16.88;;;11.23;;
27424;SDS011;15244;49.088;11.886;2023-02-17T05:55:07;17.60;;;11.07;;
27424;SDS011;15244;49.088;11.886;2023-02-17T06:00:09;15.05;;;10.20;;
27424;SDS011;15244;49.088;11.886;2023-02-17T06:05:14;15.63;;;10.52;;
27424;SDS011;15244;49.088;11.886;2023-02-17T06:10:15;17.83;;;11.65;;
27424;SDS011;15244;49.088;11.886;2023-02-17T06:15:17;15.07;;;10.02;;
27424;SDS011;15244;49.088;11.886;2023-02-17T06:20:19;15.10;;;10.15;;
27424;SDS011;15244;49.088;11.886;2023-02-17T06:25:20;13.63;;;9.57;;
27424;SDS011;15244;49.088;11.886;2023-02-17T06:30:22;11.45;;;8.75;;
27424;SDS011;15244;49.088;11.886;2023-02-17T06:35:24;16.77;;;9.82;;
27424;SDS011;15244;49.088;11.886;2023-02-17T06:40:26;13.10;;;9.95;;
27424;SDS011;15244;49.088;11.886;2023-02-17T06:45:29;12.93;;;8.35;;
27424;SDS011;15244;49.088;11.886;2023-02-17T06:50:30;10.60;;;8.05;;
27424;SDS011;15244;49.088;11.886;2023-02-17T06:55:32;15.15;;;9.60;;
27424;SDS011;15244;49.088;11.886;2023-02-17T07:00:35;11.90;;;8.27;;
27424;SDS011;15244;49.088;11.886;2023-02-17T07:05:37;14.18;;;8.95;;
27424;SDS011;15244;49.088;11.886;2023-02-17T07:10:40;13.60;;;8.80;;
27424;SDS011;15244;49.088;11.886;2023-02-17T07:15:42;11.75;;;7.88;;
27424;SDS011;15244;49.088;11.886;2023-02-17T07:20:43;12.52;;;8.23;;
27424;SDS011;15244;49.088;11.886;2023-02-17T07:25:45;12.65;;;8.10;;
27424;SDS011;15244;49.088;11.886;2023-02-17T07:30:46;8.82;;;7.40;;
27424;SDS011;15244;49.088;11.886;2023-02-17T07:35:48;10.13;;;8.00;;
27424;SDS011;15244;49.088;11.886;2023-02-17T07:40:49;8.13;;;6.97;;
27424;SDS011;15244;49.088;11.886;2023-02-17T07:45:53;10.27;;;7.35;;
27424;SDS011;15244;49.088;11.886;2023-02-17T07:50:56;8.10;;;6.78;;
27424;SDS011;15244;49.088;11.886;2023-02-17T07:56:12;8.68;;;6.65;;
27424;SDS011;15244;49.088;11.886;2023-02-17T08:01:18;10.25;;;6.85;;
27424;SDS011;15244;49.088;11.886;2023-02-17T08:06:23;10.00;;;6.50;;
27424;SDS011;15244;49.088;11.886;2023-02-17T08:11:25;7.90;;;6.22;;
27424;SDS011;15244;49.088;11.886;2023-02-17T08:16:49;6.28;;;5.63;;
27424;SDS011;15244;49.088;11.886;2023-02-17T08:21:51;11.65;;;6.80;;
27424;SDS011;15244;49.088;11.886;2023-02-17T08:26:53;8.25;;;6.40;;
27424;SDS011;15244;49.088;11.886;2023-02-17T08:31:55;10.68;;;6.30;;
27424;SDS011;15244;49.088;11.886;2023-02-17T08:36:57;7.60;;;6.10;;
27424;SDS011;15244;49.088;11.886;2023-02-17T08:42:00;9.65;;;5.75;;
27424;SDS011;15244;49.088;11.886;2023-02-17T08:47:03;8.18;;;6.60;;
27424;SDS011;15244;49.088;11.886;2023-02-17T08:52:05;8.18;;;5.50;;
27424;SDS011;15244;49.088;11.886;2023-02-17T08:57:07;6.28;;;5.65;;
27424;SDS011;15244;49.088;11.886;2023-02-17T09:02:09;8.20;;;5.72;;
27424;SDS011;15244;49.088;11.886;2023-02-17T09:07:12;9.10;;;5.28;;
27424;SDS011;15244;49.088;11.886;2023-02-17T09:12:15;8.05;;;5.63;;
27424;SDS011;15244;49.088;11.886;2023-02-17T09:17:16;6.47;;;4.85;;
27424;SDS011;15244;49.088;11.886;2023-02-17T09:22:18;7.18;;;5.22;;
27424;SDS011;15244;49.088;11.886;2023-02-17T09:27:32;6.88;;;4.57;;
27424;SDS011;15244;49.088;11.886;2023-02-17T09:32:34;6.40;;;5.03;;
27424;SDS011;15244;49.088;11.886;2023-02-17T09:37:35;6.50;;;4.57;;
27424;SDS011;15244;49.088;11.886;2023-02-17T09:42:37;7.05;;;4.88;;
27424;SDS011;15244;49.088;11.886;2023-02-17T09:47:45;7.15;;;4.15;;
27424;SDS011;15244;49.088;11.886;2023-02-17T09:52:53;5.03;;;4.57;;
27424;SDS011;15244;49.088;11.886;2023-02-17T09:58:05;4.22;;;3.83;;
27424;SDS011;15244;49.088;11.886;2023-02-17T10:03:24;4.72;;;3.30;;
27424;SDS011;15244;49.088;11.886;2023-02-17T10:14:02;3.92;;;3.40;;
27424;SDS011;15244;49.088;11.886;2023-02-17T10:19:11;5.65;;;2.97;;
27424;SDS011;15244;49.088;11.886;2023-02-17T10:24:20;5.60;;;3.28;;
27424;SDS011;15244;49.088;11.886;2023-02-17T10:40:02;3.40;;;2.80;;
27424;SDS011;15244;49.088;11.886;2023-02-17T10:50:19;3.07;;;2.60;;
27424;SDS011;15244;49.088;11.886;2023-02-17T11:00:40;4.90;;;2.78;;
27424;SDS011;15244;49.088;11.886;2023-02-17T11:05:43;4.30;;;3.00;;
27424;SDS011;15244;49.088;11.886;2023-02-17T11:10:45;3.97;;;2.72;;
27424;SDS011;15244;49.088;11.886;2023-02-17T11:15:58;3.17;;;2.40;;
27424;SDS011;15244;49.088;11.886;2023-02-17T11:21:02;3.13;;;2.83;;
27424;SDS011;15244;49.088;11.886;2023-02-17T11:26:10;6.07;;;2.25;;
27424;SDS011;15244;49.088;11.886;2023-02-17T11:31:28;2.67;;;2.20;;
27424;SDS011;15244;49.088;11.886;2023-02-17T11:36:31;3.75;;;2.35;;
27424;SDS011;15244;49.088;11.886;2023-02-17T11:41:39;2.45;;;2.25;;
27424;SDS011;15244;49.088;11.886;2023-02-17T11:46:59;3.22;;;2.17;;
27424;SDS011;15244;49.088;11.886;2023-02-17T11:52:17;2.53;;;1.50;;
27424;SDS011;15244;49.088;11.886;2023-02-17T12:08:01;1.40;;;1.30;;
27424;SDS011;15244;49.088;11.886;2023-02-17T12:13:30;2.58;;;1.33;;
27424;SDS011;15244;49.088;11.886;2023-02-17T12:24:23;1.27;;;1.17;;
27424;SDS011;15244;49.088;11.886;2023-02-17T12:29:36;1.40;;;1.30;;
27424;SDS011;15244;49.088;11.886;2023-02-17T12:34:55;2.45;;;1.35;;
27424;SDS011;15244;49.088;11.886;2023-02-17T12:40:03;1.50;;;1.17;;
27424;SDS011;15244;49.088;11.886;2023-02-17T12:45:35;1.15;;;1.10;;
27424;SDS011;15244;49.088;11.886;2023-02-17T12:51:02;3.58;;;1.30;;
27424;SDS011;15244;49.088;11.886;2023-02-17T12:56:37;1.45;;;1.35;;
27424;SDS011;15244;49.088;11.886;2023-02-17T13:02:01;5.15;;;3.45;;
27424;SDS011;15244;49.088;11.886;2023-02-17T13:12:54;1.63;;;1.52;;
27424;SDS011;15244;49.088;11.886;2023-02-17T13:17:59;1.60;;;1.20;;
27424;SDS011;15244;49.088;11.886;2023-02-17T13:23:04;4.28;;;1.58;;
27424;SDS011;15244;49.088;11.886;2023-02-17T13:28:16;1.48;;;1.38;;
27424;SDS011;15244;49.088;11.886;2023-02-17T13:38:31;1.50;;;1.40;;
27424;SDS011;15244;49.088;11.886;2023-02-17T13:43:39;1.45;;;1.00;;
27424;SDS011;15244;49.088;11.886;2023-02-17T13:48:42;1.13;;;1.08;;
27424;SDS011;15244;49.088;11.886;2023-02-17T13:53:47;1.30;;;1.20;;
27424;SDS011;15244;49.088;11.886;2023-02-17T13:58:51;1.10;;;1.00;;
27424;SDS011;15244;49.088;11.886;2023-02-17T14:03:54;2.65;;;1.25;;
27424;SDS011;15244;49.088;11.886;2023-02-17T14:08:56;1.23;;;1.15;;
27424;SDS011;15244;49.088;11.886;2023-02-17T14:13:58;1.20;;;1.10;;
27424;SDS011;15244;49.088;11.886;2023-02-17T14:24:04;1.10;;;1.10;;
27424;SDS011;15244;49.088;11.886;2023-02-17T14:29:06;1.20;;;1.10;;
27424;SDS011;15244;49.088;11.886;2023-02-17T14:39:20;1.17;;;1.08;;
27424;SDS011;15244;49.088;11.886;2023-02-17T14:44:22;2.50;;;1.40;;
27424;SDS011;15244;49.088;11.886;2023-02-17T14:49:24;1.02;;;1.02;;
27424;SDS011;15244;49.088;11.886;2023-02-17T14:54:26;1.20;;;1.10;;
27424;SDS011;15244;49.088;11.886;2023-02-17T14:59:30;1.40;;;1.30;;
27424;SDS011;15244;49.088;11.886;2023-02-17T15:04:32;1.45;;;1.20;;
27424;SDS011;15244;49.088;11.886;2023-02-17T15:09:34;1.60;;;1.50;;
27424;SDS011;15244;49.088;11.886;2023-02-17T15:14:35;1.00;;;1.00;;
27424;SDS011;15244;49.088;11.886;2023-02-17T15:19:37;1.67;;;1.30;;
27424;SDS011;15244;49.088;11.886;2023-02-17T15:24:39;1.85;;;1.48;;
27424;SDS011;15244;49.088;11.886;2023-02-17T15:29:41;1.50;;;1.40;;
27424;SDS011;15244;49.088;11.886;2023-02-17T15:34:43;1.70;;;1.60;;
27424;SDS011;15244;49.088;11.886;2023-02-17T15:39:45;1.52;;;1.42;;
27424;SDS011;15244;49.088;11.886;2023-02-17T15:44:47;1.83;;;1.70;;
27424;SDS011;15244;49.088;11.886;2023-02-17T15:49:50;1.60;;;1.50;;
27424;SDS011;15244;49.088;11.886;2023-02-17T15:54:52;1.35;;;1.30;;
27424;SDS011;15244;49.088;11.886;2023-02-17T15:59:54;1.35;;;1.25;;
27424;SDS011;15244;49.088;11.886;2023-02-17T16:04:55;2.15;;;1.45;;
27424;SDS011;15244;49.088;11.886;2023-02-17T16:09:57;1.85;;;1.10;;
27424;SDS011;15244;49.088;11.886;2023-02-17T16:14:59;1.42;;;1.25;;
27424;SDS011;15244;49.088;11.886;2023-02-17T16:20:00;1.30;;;1.20;;
27424;SDS011;15244;49.088;11.886;2023-02-17T16:25:02;1.25;;;1.05;;
27424;SDS011;15244;49.088;11.886;2023-02-17T16:30:18;3.80;;;1.20;;
27424;SDS011;15244;49.088;11.886;2023-02-17T16:35:24;1.20;;;1.20;;
27424;SDS011;15244;49.088;11.886;2023-02-17T16:40:29;1.60;;;1.50;;
27424;SDS011;15244;49.088;11.886;2023-02-17T16:45:32;1.95;;;1.30;;
27424;SDS011;15244;49.088;11.886;2023-02-17T16:50:34;1.92;;;1.73;;
27424;SDS011;15244;49.088;11.886;2023-02-17T16:55:35;1.70;;;1.60;;
27424;SDS011;15244;49.088;11.886;2023-02-17T17:00:37;2.55;;;1.70;;
27424;SDS011;15244;49.088;11.886;2023-02-17T17:05:40;1.92;;;1.58;;
27424;SDS011;15244;49.088;11.886;2023-02-17T17:10:43;1.70;;;1.60;;
27424;SDS011;15244;49.088;11.886;2023-02-17T17:15:46;1.60;;;1.50;;
27424;SDS011;15244;49.088;11.886;2023-02-17T17:20:47;1.50;;;1.40;;
27424;SDS011;15244;49.088;11.886;2023-02-17T17:25:49;2.08;;;1.35;;
27424;SDS011;15244;49.088;11.886;2023-02-17T17:30:51;2.25;;;1.40;;
27424;SDS011;15244;49.088;11.886;2023-02-17T17:35:52;2.00;;;1.80;;
27424;SDS011;15244;49.088;11.886;2023-02-17T17:40:54;3.38;;;2.30;;
27424;SDS011;15244;49.088;11.886;2023-02-17T17:45:57;1.80;;;1.33;;
27424;SDS011;15244;49.088;11.886;2023-02-17T17:50:59;2.55;;;2.35;;
27424;SDS011;15244;49.088;11.886;2023-02-17T17:56:00;1.70;;;1.60;;
27424;SDS011;15244;49.088;11.886;2023-02-17T18:01:02;2.00;;;1.80;;
27424;SDS011;15244;49.088;11.886;2023-02-17T18:06:04;1.83;;;1.73;;
27424;SDS011;15244;49.088;11.886;2023-02-17T18:11:08;1.63;;;1.50;;
27424;SDS011;15244;49.088;11.886;2023-02-17T18:16:11;2.53;;;2.00;;
27424;SDS011;15244;49.088;11.886;2023-02-17T18:21:14;2.88;;;2.00;;
27424;SDS011;15244;49.088;11.886;2023-02-17T18:26:16;2.10;;;1.80;;
27424;SDS011;15244;49.088;11.886;2023-02-17T18:31:18;2.40;;;2.10;;
27424;SDS011;15244;49.088;11.886;2023-02-17T18:36:22;1.85;;;1.75;;
27424;SDS011;15244;49.088;11.886;2023-02-17T18:41:26;1.98;;;1.73;;
27424;SDS011;15244;49.088;11.886;2023-02-17T18:46:29;2.50;;;2.00;;
27424;SDS011;15244;49.088;11.886;2023-02-17T18:51:33;1.58;;;1.48;;
27424;SDS011;15244;49.088;11.886;2023-02-17T18:56:35;2.05;;;1.80;;
27424;SDS011;15244;49.088;11.886;2023-02-17T19:01:37;1.73;;;1.60;;
27424;SDS011;15244;49.088;11.886;2023-02-17T19:06:41;1.63;;;1.48;;
27424;SDS011;15244;49.088;11.886;2023-02-17T19:11:42;3.75;;;1.40;;
27424;SDS011;15244;49.088;11.886;2023-02-17T19:16:44;1.67;;;1.50;;
27424;SDS011;15244;49.088;11.886;2023-02-17T19:21:45;1.65;;;1.15;;
27424;SDS011;15244;49.088;11.886;2023-02-17T19:26:47;1.77;;;1.20;;
27424;SDS011;15244;49.088;11.886;2023-02-17T19:31:49;1.75;;;1.65;;
27424;SDS011;15244;49.088;11.886;2023-02-17T19:36:50;1.75;;;1.65;;
27424;SDS011;15244;49.088;11.886;2023-02-17T19:41:52;2.33;;;1.80;;
27424;SDS011;15244;49.088;11.886;2023-02-17T19:46:54;2.17;;;1.73;;
27424;SDS011;15244;49.088;11.886;2023-02-17T19:51:55;2.35;;;1.90;;
27424;SDS011;15244;49.088;11.886;2023-02-17T19:56:57;2.25;;;1.60;;
27424;SDS011;15244;49.088;11.886;2023-02-17T20:01:58;1.75;;;1.50;;
27424;SDS011;15244;49.088;11.886;2023-02-17T20:07:00;1.92;;;1.83;;
27424;SDS011;15244;49.088;11.886;2023-02-17T20:12:02;1.70;;;1.60;;
27424;SDS011;15244;49.088;11.886;2023-02-17T20:17:04;1.80;;;1.67;;
27424;SDS011;15244;49.088;11.886;2023-02-17T20:22:06;1.98;;;1.63;;
27424;SDS011;15244;49.088;11.886;2023-02-17T20:27:08;1.38;;;1.27;;
27424;SDS011;15244;49.088;11.886;2023-02-17T20:32:10;2.13;;;1.70;;
27424;SDS011;15244;49.088;11.886;2023-02-17T20:37:12;1.40;;;1.30;;
27424;SDS011;15244;49.088;11.886;2023-02-17T20:42:13;1.50;;;1.40;;
27424;SDS011;15244;49.088;11.886;2023-02-17T20:47:15;1.20;;;1.20;;
27424;SDS011;15244;49.088;11.886;2023-02-17T20:52:16;1.50;;;1.40;;
27424;SDS011;15244;49.088;11.886;2023-02-17T20:57:19;1.27;;;1.17;;
27424;SDS011;15244;49.088;11.886;2023-02-17T21:02:20;4.97;;;1.30;;
27424;SDS011;15244;49.088;11.886;2023-02-17T21:07:22;1.40;;;1.38;;
27424;SDS011;15244;49.088;11.886;2023-02-17T21:12:24;1.30;;;1.30;;
27424;SDS011;15244;49.088;11.886;2023-02-17T21:17:25;1.90;;;1.27;;
27424;SDS011;15244;49.088;11.886;2023-02-17T21:22:27;1.40;;;1.30;;
27424;SDS011;15244;49.088;11.886;2023-02-17T21:27:28;1.20;;;1.20;;
27424;SDS011;15244;49.088;11.886;2023-02-17T21:32:30;1.35;;;1.25;;
27424;SDS011;15244;49.088;11.886;2023-02-17T21:37:32;1.33;;;1.33;;
27424;SDS011;15244;49.088;11.886;2023-02-17T21:42:37;1.15;;;1.15;;
27424;SDS011;15244;49.088;11.886;2023-02-17T21:47:58;1.35;;;1.30;;
27424;SDS011;15244;49.088;11.886;2023-02-17T21:52:59;2.15;;;1.13;;
27424;SDS011;15244;49.088;11.886;2023-02-17T21:58:01;1.00;;;1.00;;
27424;SDS011;15244;49.088;11.886;2023-02-17T22:03:02;1.20;;;1.10;;
27424;SDS011;15244;49.088;11.886;2023-02-17T22:08:04;1.10;;;1.05;;
27424;SDS011;15244;49.088;11.886;2023-02-17T22:13:05;1.00;;;1.00;;
27424;SDS011;15244;49.088;11.886;2023-02-17T22:18:07;1.05;;;1.05;;
27424;SDS011;15244;49.088;11.886;2023-02-17T22:23:09;1.00;;;1.00;;
27424;SDS011;15244;49.088;11.886;2023-02-17T22:28:11;1.55;;;1.45;;
27424;SDS011;15244;49.088;11.886;2023-02-17T22:33:14;3.75;;;2.20;;
27424;SDS011;15244;49.088;11.886;2023-02-17T22:38:16;1.77;;;1.67;;
27424;SDS011;15244;49.088;11.886;2023-02-17T22:43:17;2.05;;;1.95;;
27424;SDS011;15244;49.088;11.886;2023-02-17T22:48:19;3.70;;;3.40;;
27424;SDS011;15244;49.088;11.886;2023-02-17T22:53:21;3.63;;;3.33;;
27424;SDS011;15244;49.088;11.886;2023-02-17T22:58:23;4.35;;;4.00;;
27424;SDS011;15244;49.088;11.886;2023-02-17T23:03:26;1.67;;;1.58;;
27424;SDS011;15244;49.088;11.886;2023-02-17T23:08:28;2.67;;;1.67;;
27424;SDS011;15244;49.088;11.886;2023-02-17T23:13:30;1.85;;;1.75;;
27424;SDS011;15244;49.088;11.886;2023-02-17T23:18:33;2.20;;;2.00;;
27424;SDS011;15244;49.088;11.886;2023-02-17T23:23:36;1.48;;;1.38;;
27424;SDS011;15244;49.088;11.886;2023-02-17T23:28:38;1.52;;;1.42;;
27424;SDS011;15244;49.088;11.886;2023-02-17T23:33:39;1.45;;;1.35;;
27424;SDS011;15244;49.088;11.886;2023-02-17T23:38:41;2.63;;;2.15;;
27424;SDS011;15244;49.088;11.886;2023-02-17T23:43:42;2.00;;;1.65;;
27424;SDS011;15244;49.088;11.886;2023-02-17T23:48:44;1.63;;;1.52;;
27424;SDS011;15244;49.088;11.886;2023-02-17T23:53:46;1.98;;;1.80;;
27424;SDS011;15244;49.088;11.886;2023-02-17T23:58:47;1.95;;;1.85;;
